sensor_id;sensor_type;location;lat;lon;timestamp;P1;durP1;ratioP1;P2;durP2;ratioP2
78302;SDS011;67559;24.140;-110.296;2023-09-19T00:02:20;12.65;;;2.90;;
78302;SDS011;67559;24.140;-110.296;2023-09-19T00:04:53;15.68;;;2.80;;
78302;SDS011;67559;24.140;-110.296;2023-09-19T00:07:23;15.52;;;2.58;;
78302;SDS011;67559;24.140;-110.296;2023-09-19T00:09:52;13.68;;;2.60;;
78302;SDS011;67559;24.140;-110.296;2023-09-19T00:12:22;5.65;;;2.40;;
78302;SDS011;67559;24.140;-110.296;2023-09-19T00:14:54;8.23;;;2.47;;
78302;SDS011;67559;24.140;-110.296;2023-09-19T00:17:28;14.82;;;2.67;;
78302;SDS011;67559;24.140;-110.296;2023-09-19T00:19:59;10.20;;;2.70;;
78302;SDS011;67559;24.140;-110.296;2023-09-19T00:22:34;6.75;;;2.42;;
78302;SDS011;67559;24.140;-110.296;2023-09-19T00:25:08;11.32;;;3.03;;
78302;SDS011;67559;24.140;-110.296;2023-09-19T00:27:42;12.23;;;2.97;;
78302;SDS011;67559;24.140;-110.296;2023-09-19T00:30:18;11.52;;;3.67;;
78302;SDS011;67559;24.140;-110.296;2023-09-19T00:32:51;17.60;;;2.83;;
78302;SDS011;67559;24.140;-110.296;2023-09-19T00:35:22;13.80;;;3.33;;
78302;SDS011;67559;24.140;-110.296;2023-09-19T00:37:53;7.75;;;2.75;;
78302;SDS011;67559;24.140;-110.296;2023-09-19T00:40:24;11.68;;;2.47;;
78302;SDS011;67559;24.140;-110.296;2023-09-19T00:42:57;7.93;;;2.97;;
78302;SDS011;67559;24.140;-110.296;2023-09-19T00:45:28;20.08;;;3.63;;
78302;SDS011;67559;24.140;-110.296;2023-09-19T00:48:00;17.75;;;3.78;;
78302;SDS011;67559;24.140;-110.296;2023-09-19T00:50:36;22.90;;;3.95;;
78302;SDS011;67559;24.140;-110.296;2023-09-19T00:53:12;14.35;;;3.05;;
78302;SDS011;67559;24.140;-110.296;2023-09-19T00:55:46;17.52;;;3.85;;
78302;SDS011;67559;24.140;-110.296;2023-09-19T00:58:18;29.52;;;4.28;;
78302;SDS011;67559;24.140;-110.296;2023-09-19T01:00:49;16.58;;;3.00;;
78302;SDS011;67559;24.140;-110.296;2023-09-19T01:03:21;14.40;;;2.88;;
78302;SDS011;67559;24.140;-110.296;2023-09-19T01:05:55;13.38;;;2.72;;
78302;SDS011;67559;24.140;-110.296;2023-09-19T01:08:28;15.18;;;3.50;;
78302;SDS011;67559;24.140;-110.296;2023-09-19T01:11:01;17.90;;;3.25;;
78302;SDS011;67559;24.140;-110.296;2023-09-19T01:16:29;15.43;;;3.42;;
78302;SDS011;67559;24.140;-110.296;2023-09-19T01:19:19;19.40;;;4.88;;
78302;SDS011;67559;24.140;-110.296;2023-09-19T01:30:31;17.48;;;3.70;;
78302;SDS011;67559;24.140;-110.296;2023-09-19T01:33:05;16.98;;;3.38;;
78302;SDS011;67559;24.140;-110.296;2023-09-19T01:35:38;22.00;;;4.25;;
78302;SDS011;67559;24.140;-110.296;2023-09-19T01:38:08;22.00;;;4.13;;
78302;SDS011;67559;24.140;-110.296;2023-09-19T01:40:42;19.25;;;3.63;;
78302;SDS011;67559;24.140;-110.296;2023-09-19T01:43:20;15.23;;;3.60;;
78302;SDS011;67559;24.140;-110.296;2023-09-19T01:54:41;19.77;;;3.35;;
78302;SDS011;67559;24.140;-110.296;2023-09-19T01:57:22;22.00;;;3.92;;
78302;SDS011;67559;24.140;-110.296;2023-09-19T02:00:01;17.63;;;3.30;;
78302;SDS011;67559;24.140;-110.296;2023-09-19T02:02:40;15.15;;;3.35;;
78302;SDS011;67559;24.140;-110.296;2023-09-19T02:05:13;19.27;;;3.53;;
78302;SDS011;67559;24.140;-110.296;2023-09-19T02:07:56;19.55;;;4.10;;
78302;SDS011;67559;24.140;-110.296;2023-09-19T02:13:03;26.80;;;4.13;;
78302;SDS011;67559;24.140;-110.296;2023-09-19T02:18:07;14.48;;;3.33;;
78302;SDS011;67559;24.140;-110.296;2023-09-19T02:20:39;15.98;;;3.47;;
78302;SDS011;67559;24.140;-110.296;2023-09-19T02:23:10;23.50;;;4.28;;
78302;SDS011;67559;24.140;-110.296;2023-09-19T02:25:43;17.60;;;3.88;;
78302;SDS011;67559;24.140;-110.296;2023-09-19T02:28:21;13.65;;;3.20;;
78302;SDS011;67559;24.140;-110.296;2023-09-19T02:30:54;18.58;;;4.10;;
78302;SDS011;67559;24.140;-110.296;2023-09-19T02:33:25;22.38;;;4.00;;
78302;SDS011;67559;24.140;-110.296;2023-09-19T02:36:00;19.42;;;3.70;;
78302;SDS011;67559;24.140;-110.296;2023-09-19T02:38:32;17.98;;;4.22;;
78302;SDS011;67559;24.140;-110.296;2023-09-19T02:41:04;31.90;;;4.05;;
78302;SDS011;67559;24.140;-110.296;2023-09-19T02:46:10;16.38;;;3.20;;
78302;SDS011;67559;24.140;-110.296;2023-09-19T02:48:41;15.05;;;3.65;;
78302;SDS011;67559;24.140;-110.296;2023-09-19T02:53:45;22.88;;;3.92;;
78302;SDS011;67559;24.140;-110.296;2023-09-19T02:56:16;17.73;;;3.15;;
78302;SDS011;67559;24.140;-110.296;2023-09-19T02:58:47;28.38;;;3.22;;
78302;SDS011;67559;24.140;-110.296;2023-09-19T03:01:18;19.30;;;4.47;;
78302;SDS011;67559;24.140;-110.296;2023-09-19T03:03:50;14.60;;;3.38;;
78302;SDS011;67559;24.140;-110.296;2023-09-19T03:06:21;23.55;;;4.05;;
78302;SDS011;67559;24.140;-110.296;2023-09-19T03:08:52;21.52;;;4.43;;
78302;SDS011;67559;24.140;-110.296;2023-09-19T03:11:24;21.17;;;4.30;;
78302;SDS011;67559;24.140;-110.296;2023-09-19T03:13:55;13.65;;;3.83;;
78302;SDS011;67559;24.140;-110.296;2023-09-19T03:16:26;25.70;;;3.97;;
78302;SDS011;67559;24.140;-110.296;2023-09-19T03:18:57;26.92;;;4.03;;
78302;SDS011;67559;24.140;-110.296;2023-09-19T03:21:28;17.73;;;4.03;;
78302;SDS011;67559;24.140;-110.296;2023-09-19T03:23:59;18.63;;;3.92;;
78302;SDS011;67559;24.140;-110.296;2023-09-19T03:26:31;19.70;;;3.90;;
78302;SDS011;67559;24.140;-110.296;2023-09-19T03:29:04;15.85;;;3.90;;
78302;SDS011;67559;24.140;-110.296;2023-09-19T03:31:37;17.13;;;3.90;;
78302;SDS011;67559;24.140;-110.296;2023-09-19T03:34:08;17.08;;;3.83;;
78302;SDS011;67559;24.140;-110.296;2023-09-19T03:36:39;26.15;;;4.22;;
78302;SDS011;67559;24.140;-110.296;2023-09-19T03:39:09;24.55;;;4.13;;
78302;SDS011;67559;24.140;-110.296;2023-09-19T03:41:43;15.35;;;3.70;;
78302;SDS011;67559;24.140;-110.296;2023-09-19T03:44:13;18.38;;;4.35;;
78302;SDS011;67559;24.140;-110.296;2023-09-19T03:46:44;27.30;;;4.28;;
78302;SDS011;67559;24.140;-110.296;2023-09-19T03:51:48;16.85;;;2.83;;
78302;SDS011;67559;24.140;-110.296;2023-09-19T03:54:19;14.85;;;3.78;;
78302;SDS011;67559;24.140;-110.296;2023-09-19T03:56:50;18.05;;;4.88;;
78302;SDS011;67559;24.140;-110.296;2023-09-19T03:59:21;17.95;;;4.28;;
78302;SDS011;67559;24.140;-110.296;2023-09-19T04:01:52;20.20;;;4.28;;
78302;SDS011;67559;24.140;-110.296;2023-09-19T04:04:24;17.60;;;4.10;;
78302;SDS011;67559;24.140;-110.296;2023-09-19T04:06:57;17.23;;;3.97;;
78302;SDS011;67559;24.140;-110.296;2023-09-19T04:09:28;21.77;;;4.78;;
78302;SDS011;67559;24.140;-110.296;2023-09-19T04:11:59;21.20;;;3.60;;
78302;SDS011;67559;24.140;-110.296;2023-09-19T04:14:30;28.30;;;5.20;;
78302;SDS011;67559;24.140;-110.296;2023-09-19T04:17:01;16.67;;;3.72;;
78302;SDS011;67559;24.140;-110.296;2023-09-19T04:19:32;22.10;;;3.97;;
78302;SDS011;67559;24.140;-110.296;2023-09-19T04:22:03;19.00;;;3.90;;
78302;SDS011;67559;24.140;-110.296;2023-09-19T04:24:34;14.45;;;3.72;;
78302;SDS011;67559;24.140;-110.296;2023-09-19T04:27:05;12.93;;;3.53;;
78302;SDS011;67559;24.140;-110.296;2023-09-19T04:29:37;17.00;;;4.32;;
78302;SDS011;67559;24.140;-110.296;2023-09-19T04:32:08;24.48;;;4.13;;
78302;SDS011;67559;24.140;-110.296;2023-09-19T04:34:41;23.05;;;4.28;;
78302;SDS011;67559;24.140;-110.296;2023-09-19T04:37:12;19.73;;;4.18;;
78302;SDS011;67559;24.140;-110.296;2023-09-19T04:42:16;18.50;;;6.15;;
78302;SDS011;67559;24.140;-110.296;2023-09-19T04:44:47;69.13;;;26.92;;
78302;SDS011;67559;24.140;-110.296;2023-09-19T04:47:21;73.45;;;33.47;;
78302;SDS011;67559;24.140;-110.296;2023-09-19T04:49:53;66.13;;;25.08;;
78302;SDS011;67559;24.140;-110.296;2023-09-19T04:52:26;39.03;;;14.02;;
78302;SDS011;67559;24.140;-110.296;2023-09-19T04:55:00;38.22;;;10.45;;
78302;SDS011;67559;24.140;-110.296;2023-09-19T04:57:31;27.90;;;7.57;;
78302;SDS011;67559;24.140;-110.296;2023-09-19T05:00:04;24.13;;;6.47;;
78302;SDS011;67559;24.140;-110.296;2023-09-19T05:05:13;17.77;;;4.72;;
78302;SDS011;67559;24.140;-110.296;2023-09-19T05:07:44;29.63;;;4.63;;
78302;SDS011;67559;24.140;-110.296;2023-09-19T05:10:15;25.10;;;4.82;;
78302;SDS011;67559;24.140;-110.296;2023-09-19T05:12:46;23.27;;;4.50;;
78302;SDS011;67559;24.140;-110.296;2023-09-19T05:15:19;16.05;;;3.97;;
78302;SDS011;67559;24.140;-110.296;2023-09-19T05:17:51;21.48;;;4.38;;
78302;SDS011;67559;24.140;-110.296;2023-09-19T05:20:23;23.90;;;5.25;;
78302;SDS011;67559;24.140;-110.296;2023-09-19T05:23:01;32.05;;;5.07;;
78302;SDS011;67559;24.140;-110.296;2023-09-19T05:25:44;18.90;;;3.88;;
78302;SDS011;67559;24.140;-110.296;2023-09-19T05:28:15;19.90;;;4.40;;
78302;SDS011;67559;24.140;-110.296;2023-09-19T05:30:47;22.70;;;4.35;;
78302;SDS011;67559;24.140;-110.296;2023-09-19T05:33:20;16.67;;;4.20;;
78302;SDS011;67559;24.140;-110.296;2023-09-19T05:35:52;14.85;;;3.92;;
78302;SDS011;67559;24.140;-110.296;2023-09-19T05:38:24;25.58;;;5.03;;
78302;SDS011;67559;24.140;-110.296;2023-09-19T05:46:04;25.58;;;3.97;;
78302;SDS011;67559;24.140;-110.296;2023-09-19T05:48:36;23.42;;;3.95;;
78302;SDS011;67559;24.140;-110.296;2023-09-19T05:51:08;17.00;;;3.95;;
78302;SDS011;67559;24.140;-110.296;2023-09-19T05:53:39;15.80;;;4.10;;
78302;SDS011;67559;24.140;-110.296;2023-09-19T05:56:10;15.73;;;4.05;;
78302;SDS011;67559;24.140;-110.296;2023-09-19T05:58:42;17.67;;;4.22;;
78302;SDS011;67559;24.140;-110.296;2023-09-19T06:01:12;21.48;;;4.32;;
78302;SDS011;67559;24.140;-110.296;2023-09-19T06:03:43;18.85;;;4.03;;
78302;SDS011;67559;24.140;-110.296;2023-09-19T06:06:14;23.35;;;4.55;;
78302;SDS011;67559;24.140;-110.296;2023-09-19T06:08:47;19.92;;;4.50;;
78302;SDS011;67559;24.140;-110.296;2023-09-19T06:11:19;18.85;;;4.93;;
78302;SDS011;67559;24.140;-110.296;2023-09-19T06:13:53;26.77;;;4.82;;
78302;SDS011;67559;24.140;-110.296;2023-09-19T06:16:28;15.60;;;3.97;;
78302;SDS011;67559;24.140;-110.296;2023-09-19T06:19:01;16.42;;;4.53;;
78302;SDS011;67559;24.140;-110.296;2023-09-19T06:21:36;18.67;;;4.28;;
78302;SDS011;67559;24.140;-110.296;2023-09-19T06:24:09;24.98;;;4.47;;
78302;SDS011;67559;24.140;-110.296;2023-09-19T06:26:42;21.85;;;4.72;;
78302;SDS011;67559;24.140;-110.296;2023-09-19T06:29:12;16.38;;;4.03;;
78302;SDS011;67559;24.140;-110.296;2023-09-19T06:31:43;23.60;;;5.00;;
78302;SDS011;67559;24.140;-110.296;2023-09-19T06:34:14;17.20;;;4.22;;
78302;SDS011;67559;24.140;-110.296;2023-09-19T06:36:47;18.00;;;5.15;;
78302;SDS011;67559;24.140;-110.296;2023-09-19T06:39:23;23.33;;;4.80;;
78302;SDS011;67559;24.140;-110.296;2023-09-19T06:41:55;25.35;;;4.93;;
78302;SDS011;67559;24.140;-110.296;2023-09-19T06:44:29;19.52;;;4.82;;
78302;SDS011;67559;24.140;-110.296;2023-09-19T06:47:02;22.02;;;4.82;;
78302;SDS011;67559;24.140;-110.296;2023-09-19T06:49:34;20.95;;;5.25;;
78302;SDS011;67559;24.140;-110.296;2023-09-19T06:52:05;19.60;;;5.10;;
78302;SDS011;67559;24.140;-110.296;2023-09-19T06:54:36;26.35;;;5.18;;
78302;SDS011;67559;24.140;-110.296;2023-09-19T06:57:08;18.10;;;4.60;;
78302;SDS011;67559;24.140;-110.296;2023-09-19T06:59:41;16.50;;;4.20;;
78302;SDS011;67559;24.140;-110.296;2023-09-19T07:02:14;13.98;;;4.03;;
78302;SDS011;67559;24.140;-110.296;2023-09-19T07:04:50;20.63;;;4.68;;
78302;SDS011;67559;24.140;-110.296;2023-09-19T07:07:22;22.90;;;4.70;;
78302;SDS011;67559;24.140;-110.296;2023-09-19T07:09:54;15.63;;;4.30;;
78302;SDS011;67559;24.140;-110.296;2023-09-19T07:12:26;20.10;;;4.78;;
78302;SDS011;67559;24.140;-110.296;2023-09-19T07:14:57;20.98;;;4.78;;
78302;SDS011;67559;24.140;-110.296;2023-09-19T07:17:28;19.80;;;4.97;;
78302;SDS011;67559;24.140;-110.296;2023-09-19T07:20:00;19.35;;;3.92;;
78302;SDS011;67559;24.140;-110.296;2023-09-19T07:22:36;17.20;;;4.88;;
78302;SDS011;67559;24.140;-110.296;2023-09-19T07:25:08;20.70;;;4.70;;
78302;SDS011;67559;24.140;-110.296;2023-09-19T07:27:42;21.35;;;5.20;;
78302;SDS011;67559;24.140;-110.296;2023-09-19T07:30:14;20.05;;;4.40;;
78302;SDS011;67559;24.140;-110.296;2023-09-19T07:32:48;19.60;;;5.05;;
78302;SDS011;67559;24.140;-110.296;2023-09-19T07:35:20;31.35;;;10.85;;
78302;SDS011;67559;24.140;-110.296;2023-09-19T07:37:53;17.98;;;4.70;;
78302;SDS011;67559;24.140;-110.296;2023-09-19T07:40:26;21.30;;;5.88;;
78302;SDS011;67559;24.140;-110.296;2023-09-19T07:42:58;23.77;;;5.75;;
78302;SDS011;67559;24.140;-110.296;2023-09-19T07:48:07;18.67;;;4.25;;
78302;SDS011;67559;24.140;-110.296;2023-09-19T07:50:42;24.08;;;5.20;;
78302;SDS011;67559;24.140;-110.296;2023-09-19T07:53:14;16.40;;;4.70;;
78302;SDS011;67559;24.140;-110.296;2023-09-19T07:55:46;17.58;;;5.55;;
78302;SDS011;67559;24.140;-110.296;2023-09-19T07:58:16;21.17;;;4.65;;
78302;SDS011;67559;24.140;-110.296;2023-09-19T08:00:50;18.60;;;4.72;;
78302;SDS011;67559;24.140;-110.296;2023-09-19T08:03:22;18.38;;;4.72;;
78302;SDS011;67559;24.140;-110.296;2023-09-19T08:05:56;16.70;;;5.03;;
78302;SDS011;67559;24.140;-110.296;2023-09-19T08:08:29;15.07;;;4.93;;
78302;SDS011;67559;24.140;-110.296;2023-09-19T08:11:06;18.73;;;4.43;;
78302;SDS011;67559;24.140;-110.296;2023-09-19T08:13:40;20.80;;;4.93;;
78302;SDS011;67559;24.140;-110.296;2023-09-19T08:16:16;16.98;;;4.60;;
78302;SDS011;67559;24.140;-110.296;2023-09-19T08:18:49;23.35;;;5.00;;
78302;SDS011;67559;24.140;-110.296;2023-09-19T08:21:22;21.20;;;4.43;;
78302;SDS011;67559;24.140;-110.296;2023-09-19T08:23:57;16.33;;;4.25;;
78302;SDS011;67559;24.140;-110.296;2023-09-19T08:26:31;19.17;;;5.28;;
78302;SDS011;67559;24.140;-110.296;2023-09-19T08:29:06;20.10;;;4.22;;
78302;SDS011;67559;24.140;-110.296;2023-09-19T08:31:39;19.48;;;4.72;;
78302;SDS011;67559;24.140;-110.296;2023-09-19T08:34:11;13.88;;;4.07;;
78302;SDS011;67559;24.140;-110.296;2023-09-19T08:36:43;20.58;;;4.95;;
78302;SDS011;67559;24.140;-110.296;2023-09-19T08:39:15;19.48;;;5.10;;
78302;SDS011;67559;24.140;-110.296;2023-09-19T08:41:47;17.42;;;4.68;;
78302;SDS011;67559;24.140;-110.296;2023-09-19T08:44:27;13.95;;;4.25;;
78302;SDS011;67559;24.140;-110.296;2023-09-19T08:47:10;20.73;;;4.88;;
78302;SDS011;67559;24.140;-110.296;2023-09-19T08:52:37;23.17;;;5.20;;
78302;SDS011;67559;24.140;-110.296;2023-09-19T08:55:13;17.40;;;5.22;;
78302;SDS011;67559;24.140;-110.296;2023-09-19T09:00:28;17.70;;;5.32;;
78302;SDS011;67559;24.140;-110.296;2023-09-19T09:02:59;19.63;;;4.95;;
78302;SDS011;67559;24.140;-110.296;2023-09-19T09:05:34;14.88;;;4.22;;
78302;SDS011;67559;24.140;-110.296;2023-09-19T09:08:07;17.08;;;4.32;;
78302;SDS011;67559;24.140;-110.296;2023-09-19T09:13:13;23.58;;;5.65;;
78302;SDS011;67559;24.140;-110.296;2023-09-19T09:15:45;15.98;;;4.30;;
78302;SDS011;67559;24.140;-110.296;2023-09-19T09:18:17;19.80;;;4.88;;
78302;SDS011;67559;24.140;-110.296;2023-09-19T09:20:50;17.23;;;4.40;;
78302;SDS011;67559;24.140;-110.296;2023-09-19T09:23:22;12.80;;;4.32;;
78302;SDS011;67559;24.140;-110.296;2023-09-19T09:25:56;22.48;;;5.50;;
78302;SDS011;67559;24.140;-110.296;2023-09-19T09:28:30;15.63;;;4.38;;
78302;SDS011;67559;24.140;-110.296;2023-09-19T09:31:03;18.92;;;4.53;;
78302;SDS011;67559;24.140;-110.296;2023-09-19T09:33:39;14.20;;;4.22;;
78302;SDS011;67559;24.140;-110.296;2023-09-19T09:36:35;20.25;;;4.82;;
78302;SDS011;67559;24.140;-110.296;2023-09-19T09:39:08;13.20;;;4.43;;
78302;SDS011;67559;24.140;-110.296;2023-09-19T09:41:52;13.10;;;4.30;;
78302;SDS011;67559;24.140;-110.296;2023-09-19T09:44:22;21.98;;;4.43;;
78302;SDS011;67559;24.140;-110.296;2023-09-19T09:46:59;23.77;;;4.97;;
78302;SDS011;67559;24.140;-110.296;2023-09-19T09:49:48;14.65;;;4.57;;
78302;SDS011;67559;24.140;-110.296;2023-09-19T09:52:21;19.02;;;4.50;;
78302;SDS011;67559;24.140;-110.296;2023-09-19T09:55:02;21.85;;;4.85;;
78302;SDS011;67559;24.140;-110.296;2023-09-19T09:57:34;13.85;;;4.32;;
78302;SDS011;67559;24.140;-110.296;2023-09-19T10:00:09;16.98;;;4.05;;
78302;SDS011;67559;24.140;-110.296;2023-09-19T10:02:40;19.08;;;4.68;;
78302;SDS011;67559;24.140;-110.296;2023-09-19T10:05:14;21.45;;;4.55;;
78302;SDS011;67559;24.140;-110.296;2023-09-19T10:07:48;13.10;;;3.40;;
78302;SDS011;67559;24.140;-110.296;2023-09-19T10:10:32;21.15;;;4.55;;
78302;SDS011;67559;24.140;-110.296;2023-09-19T10:13:21;15.02;;;3.95;;
78302;SDS011;67559;24.140;-110.296;2023-09-19T10:18:30;14.85;;;3.90;;
78302;SDS011;67559;24.140;-110.296;2023-09-19T10:21:06;18.55;;;4.28;;
78302;SDS011;67559;24.140;-110.296;2023-09-19T10:23:40;19.02;;;4.45;;
78302;SDS011;67559;24.140;-110.296;2023-09-19T10:26:12;21.10;;;3.80;;
78302;SDS011;67559;24.140;-110.296;2023-09-19T10:28:48;16.58;;;3.72;;
78302;SDS011;67559;24.140;-110.296;2023-09-19T10:31:22;26.20;;;4.00;;
78302;SDS011;67559;24.140;-110.296;2023-09-19T10:33:55;18.50;;;4.10;;
78302;SDS011;67559;24.140;-110.296;2023-09-19T10:36:26;16.60;;;4.25;;
78302;SDS011;67559;24.140;-110.296;2023-09-19T10:39:02;19.52;;;4.35;;
78302;SDS011;67559;24.140;-110.296;2023-09-19T10:41:35;14.30;;;3.88;;
78302;SDS011;67559;24.140;-110.296;2023-09-19T10:44:06;13.18;;;3.88;;
78302;SDS011;67559;24.140;-110.296;2023-09-19T10:46:37;17.20;;;3.80;;
78302;SDS011;67559;24.140;-110.296;2023-09-19T10:49:08;20.52;;;4.07;;
78302;SDS011;67559;24.140;-110.296;2023-09-19T10:51:41;14.40;;;3.30;;
78302;SDS011;67559;24.140;-110.296;2023-09-19T10:54:17;17.00;;;3.58;;
78302;SDS011;67559;24.140;-110.296;2023-09-19T10:56:53;18.17;;;4.03;;
78302;SDS011;67559;24.140;-110.296;2023-09-19T10:59:26;21.83;;;4.50;;
78302;SDS011;67559;24.140;-110.296;2023-09-19T11:02:20;17.92;;;3.70;;
78302;SDS011;67559;24.140;-110.296;2023-09-19T11:04:52;18.00;;;4.00;;
78302;SDS011;67559;24.140;-110.296;2023-09-19T11:07:23;19.08;;;3.50;;
78302;SDS011;67559;24.140;-110.296;2023-09-19T11:09:54;14.52;;;4.53;;
78302;SDS011;67559;24.140;-110.296;2023-09-19T11:15:06;18.20;;;4.95;;
78302;SDS011;67559;24.140;-110.296;2023-09-19T11:17:39;15.88;;;4.55;;
78302;SDS011;67559;24.140;-110.296;2023-09-19T11:30:44;17.35;;;5.38;;
78302;SDS011;67559;24.140;-110.296;2023-09-19T11:33:22;22.97;;;8.23;;
78302;SDS011;67559;24.140;-110.296;2023-09-19T11:35:59;20.55;;;7.55;;
78302;SDS011;67559;24.140;-110.296;2023-09-19T11:46:32;27.45;;;6.95;;
78302;SDS011;67559;24.140;-110.296;2023-09-19T11:49:32;20.75;;;6.63;;
78302;SDS011;67559;24.140;-110.296;2023-09-19T11:52:04;26.35;;;7.10;;
78302;SDS011;67559;24.140;-110.296;2023-09-19T11:57:11;21.60;;;6.22;;
78302;SDS011;67559;24.140;-110.296;2023-09-19T11:59:52;24.98;;;6.97;;
78302;SDS011;67559;24.140;-110.296;2023-09-19T12:02:35;26.60;;;12.13;;
78302;SDS011;67559;24.140;-110.296;2023-09-19T12:05:09;25.17;;;9.07;;
78302;SDS011;67559;24.140;-110.296;2023-09-19T12:07:44;28.58;;;13.88;;
78302;SDS011;67559;24.140;-110.296;2023-09-19T12:10:15;31.65;;;17.20;;
78302;SDS011;67559;24.140;-110.296;2023-09-19T12:12:50;27.42;;;14.70;;
78302;SDS011;67559;24.140;-110.296;2023-09-19T12:15:24;72.60;;;38.78;;
78302;SDS011;67559;24.140;-110.296;2023-09-19T12:17:56;28.10;;;10.73;;
78302;SDS011;67559;24.140;-110.296;2023-09-19T12:25:48;23.80;;;8.85;;
78302;SDS011;67559;24.140;-110.296;2023-09-19T12:28:20;24.42;;;11.25;;
78302;SDS011;67559;24.140;-110.296;2023-09-19T12:30:57;33.35;;;13.13;;
78302;SDS011;67559;24.140;-110.296;2023-09-19T12:33:36;28.38;;;12.23;;
78302;SDS011;67559;24.140;-110.296;2023-09-19T12:39:01;29.75;;;14.23;;
78302;SDS011;67559;24.140;-110.296;2023-09-19T12:44:10;23.77;;;12.23;;
78302;SDS011;67559;24.140;-110.296;2023-09-19T12:46:41;20.45;;;7.70;;
78302;SDS011;67559;24.140;-110.296;2023-09-19T12:49:22;22.58;;;8.98;;
78302;SDS011;67559;24.140;-110.296;2023-09-19T12:51:54;25.70;;;9.32;;
78302;SDS011;67559;24.140;-110.296;2023-09-19T12:54:38;26.52;;;12.43;;
78302;SDS011;67559;24.140;-110.296;2023-09-19T12:57:23;25.05;;;11.05;;
78302;SDS011;67559;24.140;-110.296;2023-09-19T12:59:54;22.92;;;13.18;;
78302;SDS011;67559;24.140;-110.296;2023-09-19T13:02:26;22.65;;;10.00;;
78302;SDS011;67559;24.140;-110.296;2023-09-19T13:04:57;35.40;;;15.25;;
78302;SDS011;67559;24.140;-110.296;2023-09-19T13:10:20;38.97;;;17.50;;
78302;SDS011;67559;24.140;-110.296;2023-09-19T13:12:51;32.17;;;19.30;;
78302;SDS011;67559;24.140;-110.296;2023-09-19T13:15:23;34.42;;;14.85;;
78302;SDS011;67559;24.140;-110.296;2023-09-19T13:17:57;26.85;;;13.60;;
78302;SDS011;67559;24.140;-110.296;2023-09-19T13:20:41;36.05;;;20.50;;
78302;SDS011;67559;24.140;-110.296;2023-09-19T13:23:29;19.38;;;5.72;;
78302;SDS011;67559;24.140;-110.296;2023-09-19T13:26:00;33.88;;;12.60;;
78302;SDS011;67559;24.140;-110.296;2023-09-19T13:28:33;17.23;;;5.57;;
78302;SDS011;67559;24.140;-110.296;2023-09-19T13:31:07;24.45;;;13.52;;
78302;SDS011;67559;24.140;-110.296;2023-09-19T13:33:43;21.23;;;9.02;;
78302;SDS011;67559;24.140;-110.296;2023-09-19T13:36:18;25.60;;;9.93;;
78302;SDS011;67559;24.140;-110.296;2023-09-19T13:38:49;24.98;;;10.23;;
78302;SDS011;67559;24.140;-110.296;2023-09-19T13:41:20;13.85;;;6.13;;
78302;SDS011;67559;24.140;-110.296;2023-09-19T13:43:53;21.83;;;3.95;;
78302;SDS011;67559;24.140;-110.296;2023-09-19T13:46:24;16.23;;;5.25;;
78302;SDS011;67559;24.140;-110.296;2023-09-19T13:48:55;24.88;;;6.00;;
78302;SDS011;67559;24.140;-110.296;2023-09-19T13:51:26;17.95;;;4.65;;
78302;SDS011;67559;24.140;-110.296;2023-09-19T13:53:57;18.95;;;4.80;;
78302;SDS011;67559;24.140;-110.296;2023-09-19T13:56:28;17.55;;;3.88;;
78302;SDS011;67559;24.140;-110.296;2023-09-19T13:59:00;29.85;;;4.50;;
78302;SDS011;67559;24.140;-110.296;2023-09-19T14:01:31;27.52;;;4.68;;
78302;SDS011;67559;24.140;-110.296;2023-09-19T14:06:36;25.15;;;4.72;;
78302;SDS011;67559;24.140;-110.296;2023-09-19T14:09:10;22.25;;;4.70;;
78302;SDS011;67559;24.140;-110.296;2023-09-19T14:11:41;31.48;;;5.07;;
78302;SDS011;67559;24.140;-110.296;2023-09-19T14:14:14;41.92;;;5.32;;
78302;SDS011;67559;24.140;-110.296;2023-09-19T14:16:45;27.77;;;4.85;;
78302;SDS011;67559;24.140;-110.296;2023-09-19T14:19:17;14.77;;;3.97;;
78302;SDS011;67559;24.140;-110.296;2023-09-19T14:21:47;32.35;;;5.10;;
78302;SDS011;67559;24.140;-110.296;2023-09-19T14:26:55;37.95;;;5.93;;
78302;SDS011;67559;24.140;-110.296;2023-09-19T14:29:26;40.65;;;5.20;;
78302;SDS011;67559;24.140;-110.296;2023-09-19T14:31:58;38.00;;;5.72;;
78302;SDS011;67559;24.140;-110.296;2023-09-19T14:34:29;36.95;;;5.53;;
78302;SDS011;67559;24.140;-110.296;2023-09-19T14:37:00;22.67;;;3.88;;
78302;SDS011;67559;24.140;-110.296;2023-09-19T14:39:31;22.48;;;5.13;;
78302;SDS011;67559;24.140;-110.296;2023-09-19T14:42:02;38.85;;;5.50;;
78302;SDS011;67559;24.140;-110.296;2023-09-19T14:44:33;33.28;;;5.18;;
78302;SDS011;67559;24.140;-110.296;2023-09-19T14:47:04;40.40;;;5.82;;
78302;SDS011;67559;24.140;-110.296;2023-09-19T14:49:37;46.05;;;5.93;;
78302;SDS011;67559;24.140;-110.296;2023-09-19T14:52:08;34.20;;;4.95;;
78302;SDS011;67559;24.140;-110.296;2023-09-19T14:54:42;35.78;;;6.28;;
78302;SDS011;67559;24.140;-110.296;2023-09-19T14:57:13;47.60;;;6.95;;
78302;SDS011;67559;24.140;-110.296;2023-09-19T14:59:45;34.60;;;6.60;;
78302;SDS011;67559;24.140;-110.296;2023-09-19T15:02:16;41.45;;;6.05;;
78302;SDS011;67559;24.140;-110.296;2023-09-19T15:04:47;41.38;;;6.20;;
78302;SDS011;67559;24.140;-110.296;2023-09-19T15:07:18;36.92;;;5.55;;
78302;SDS011;67559;24.140;-110.296;2023-09-19T15:09:49;26.40;;;5.13;;
78302;SDS011;67559;24.140;-110.296;2023-09-19T15:12:20;42.60;;;5.85;;
78302;SDS011;67559;24.140;-110.296;2023-09-19T15:14:51;42.45;;;5.60;;
78302;SDS011;67559;24.140;-110.296;2023-09-19T15:17:22;32.35;;;4.88;;
78302;SDS011;67559;24.140;-110.296;2023-09-19T15:19:53;17.05;;;4.20;;
78302;SDS011;67559;24.140;-110.296;2023-09-19T15:22:24;21.92;;;4.57;;
78302;SDS011;67559;24.140;-110.296;2023-09-19T15:24:55;20.75;;;4.55;;
78302;SDS011;67559;24.140;-110.296;2023-09-19T15:27:27;32.60;;;5.82;;
78302;SDS011;67559;24.140;-110.296;2023-09-19T15:29:59;31.45;;;4.80;;
78302;SDS011;67559;24.140;-110.296;2023-09-19T15:32:32;29.95;;;4.90;;
78302;SDS011;67559;24.140;-110.296;2023-09-19T15:35:03;21.38;;;4.20;;
78302;SDS011;67559;24.140;-110.296;2023-09-19T15:42:41;32.10;;;5.78;;
78302;SDS011;67559;24.140;-110.296;2023-09-19T15:45:12;33.92;;;5.18;;
78302;SDS011;67559;24.140;-110.296;2023-09-19T15:47:45;22.17;;;4.10;;
78302;SDS011;67559;24.140;-110.296;2023-09-19T15:50:15;16.35;;;3.25;;
78302;SDS011;67559;24.140;-110.296;2023-09-19T15:52:46;13.00;;;3.28;;
78302;SDS011;67559;24.140;-110.296;2023-09-19T15:55:23;20.92;;;3.45;;
78302;SDS011;67559;24.140;-110.296;2023-09-19T15:57:55;20.52;;;3.55;;
78302;SDS011;67559;24.140;-110.296;2023-09-19T16:00:31;29.10;;;3.92;;
78302;SDS011;67559;24.140;-110.296;2023-09-19T16:03:05;19.70;;;4.93;;
78302;SDS011;67559;24.140;-110.296;2023-09-19T16:05:37;26.02;;;3.70;;
78302;SDS011;67559;24.140;-110.296;2023-09-19T16:08:07;20.33;;;3.25;;
78302;SDS011;67559;24.140;-110.296;2023-09-19T16:10:39;9.63;;;2.70;;
78302;SDS011;67559;24.140;-110.296;2023-09-19T16:13:12;22.70;;;3.60;;
78302;SDS011;67559;24.140;-110.296;2023-09-19T16:15:45;17.17;;;3.25;;